sensor_id;sensor_type;location;lat;lon;timestamp;pressure;altitude;pressure_sealevel;temperature;humidity
33949;BME280;20229;49.856;19.030;2023-12-22T00:04:16;98593.73;;;6.62;96.37
33949;BME280;20229;49.856;19.030;2023-12-22T00:09:30;98598.51;;;6.59;95.66
33949;BME280;20229;49.856;19.030;2023-12-22T00:14:43;98623.48;;;6.51;95.54
33949;BME280;20229;49.856;19.030;2023-12-22T00:19:57;98620.99;;;6.48;95.83
33949;BME280;20229;49.856;19.030;2023-12-22T00:25:16;98627.49;;;6.45;96.28
33949;BME280;20229;49.856;19.030;2023-12-22T00:30:29;98612.21;;;6.44;96.47
33949;BME280;20229;49.856;19.030;2023-12-22T00:35:43;98605.52;;;6.37;95.93
33949;BME280;20229;49.856;19.030;2023-12-22T00:40:57;98608.31;;;6.36;95.57
33949;BME280;20229;49.856;19.030;2023-12-22T00:46:13;98633.16;;;6.30;94.75
33949;BME280;20229;49.856;19.030;2023-12-22T00:51:27;98649.64;;;6.27;95.12
33949;BME280;20229;49.856;19.030;2023-12-22T00:56:40;98685.20;;;6.22;95.42
33949;BME280;20229;49.856;19.030;2023-12-22T01:01:54;98715.30;;;6.17;96.53
33949;BME280;20229;49.856;19.030;2023-12-22T01:07:08;98719.84;;;6.04;95.12
33949;BME280;20229;49.856;19.030;2023-12-22T01:12:21;98717.02;;;5.93;95.15
33949;BME280;20229;49.856;19.030;2023-12-22T01:17:35;98724.90;;;5.83;95.88
33949;BME280;20229;49.856;19.030;2023-12-22T01:22:49;98736.88;;;5.79;96.02
33949;BME280;20229;49.856;19.030;2023-12-22T01:28:03;98746.84;;;5.79;96.35
33949;BME280;20229;49.856;19.030;2023-12-22T01:33:19;98741.42;;;5.79;96.76
33949;BME280;20229;49.856;19.030;2023-12-22T01:38:33;98727.36;;;5.73;96.48
33949;BME280;20229;49.856;19.030;2023-12-22T01:43:47;98722.67;;;5.63;96.41
33949;BME280;20229;49.856;19.030;2023-12-22T01:49:02;98735.09;;;5.53;96.91
33949;BME280;20229;49.856;19.030;2023-12-22T01:54:15;98743.41;;;5.49;96.13
33949;BME280;20229;49.856;19.030;2023-12-22T01:59:31;98735.61;;;5.45;96.21
33949;BME280;20229;49.856;19.030;2023-12-22T02:04:47;98733.30;;;5.39;95.45
33949;BME280;20229;49.856;19.030;2023-12-22T02:10:01;98750.91;;;5.32;95.42
33949;BME280;20229;49.856;19.030;2023-12-22T02:15:17;98758.91;;;5.33;94.94
33949;BME280;20229;49.856;19.030;2023-12-22T02:20:32;98766.17;;;5.33;94.52
33949;BME280;20229;49.856;19.030;2023-12-22T02:25:45;98759.03;;;5.32;94.04
33949;BME280;20229;49.856;19.030;2023-12-22T02:31:09;98751.31;;;5.25;93.25
33949;BME280;20229;49.856;19.030;2023-12-22T02:36:53;98771.45;;;5.07;93.14
33949;BME280;20229;49.856;19.030;2023-12-22T02:42:07;98761.81;;;5.03;92.88
33949;BME280;20229;49.856;19.030;2023-12-22T02:47:24;98756.80;;;4.97;92.86
33949;BME280;20229;49.856;19.030;2023-12-22T02:52:40;98757.30;;;4.89;92.49
33949;BME280;20229;49.856;19.030;2023-12-22T02:57:54;98758.85;;;4.79;92.47
33949;BME280;20229;49.856;19.030;2023-12-22T03:03:07;98785.02;;;4.78;91.94
33949;BME280;20229;49.856;19.030;2023-12-22T03:08:21;98779.91;;;4.74;91.80
33949;BME280;20229;49.856;19.030;2023-12-22T03:13:35;98787.34;;;4.70;91.07
33949;BME280;20229;49.856;19.030;2023-12-22T03:18:48;98781.15;;;4.68;91.36
33949;BME280;20229;49.856;19.030;2023-12-22T03:24:02;98784.64;;;4.70;90.55
33949;BME280;20229;49.856;19.030;2023-12-22T03:29:17;98787.42;;;4.69;90.90
33949;BME280;20229;49.856;19.030;2023-12-22T03:34:31;98784.64;;;4.70;89.33
33949;BME280;20229;49.856;19.030;2023-12-22T03:39:45;98783.86;;;4.68;89.11
33949;BME280;20229;49.856;19.030;2023-12-22T03:44:59;98784.34;;;4.61;88.32
33949;BME280;20229;49.856;19.030;2023-12-22T03:50:16;98768.99;;;4.61;88.45
33949;BME280;20229;49.856;19.030;2023-12-22T03:55:29;98761.19;;;4.57;88.33
33949;BME280;20229;49.856;19.030;2023-12-22T04:00:43;98763.02;;;4.56;88.70
33949;BME280;20229;49.856;19.030;2023-12-22T04:05:57;98765.51;;;4.59;87.72
33949;BME280;20229;49.856;19.030;2023-12-22T04:11:11;98740.62;;;4.54;88.04
33949;BME280;20229;49.856;19.030;2023-12-22T04:16:25;98754.31;;;4.51;87.97
33949;BME280;20229;49.856;19.030;2023-12-22T04:21:39;98739.27;;;4.47;87.23
33949;BME280;20229;49.856;19.030;2023-12-22T04:26:52;98724.79;;;4.48;86.50
33949;BME280;20229;49.856;19.030;2023-12-22T04:32:06;98740.13;;;4.47;86.75
33949;BME280;20229;49.856;19.030;2023-12-22T04:37:20;98734.84;;;4.46;85.51
33949;BME280;20229;49.856;19.030;2023-12-22T04:42:34;98731.55;;;4.41;85.19
33949;BME280;20229;49.856;19.030;2023-12-22T04:47:47;98728.66;;;4.44;84.60
33949;BME280;20229;49.856;19.030;2023-12-22T04:53:05;98724.04;;;4.46;84.83
33949;BME280;20229;49.856;19.030;2023-12-22T04:58:19;98731.17;;;4.47;84.61
33949;BME280;20229;49.856;19.030;2023-12-22T05:03:34;98731.47;;;4.42;84.39
33949;BME280;20229;49.856;19.030;2023-12-22T05:08:48;98719.69;;;4.43;84.74
33949;BME280;20229;49.856;19.030;2023-12-22T05:14:01;98746.59;;;4.45;84.68
33949;BME280;20229;49.856;19.030;2023-12-22T05:19:15;98750.09;;;4.47;84.09
33949;BME280;20229;49.856;19.030;2023-12-22T05:24:29;98745.46;;;4.49;83.78
33949;BME280;20229;49.856;19.030;2023-12-22T05:29:42;98780.38;;;4.52;82.55
33949;BME280;20229;49.856;19.030;2023-12-22T05:34:56;98836.42;;;4.48;81.40
33949;BME280;20229;49.856;19.030;2023-12-22T05:40:10;98833.15;;;4.43;79.28
33949;BME280;20229;49.856;19.030;2023-12-22T05:45:25;98864.28;;;4.35;79.07
33949;BME280;20229;49.856;19.030;2023-12-22T05:50:39;98862.62;;;4.18;78.22
33949;BME280;20229;49.856;19.030;2023-12-22T05:55:53;98876.14;;;4.02;78.86
33949;BME280;20229;49.856;19.030;2023-12-22T06:01:07;98872.69;;;4.00;78.57
33949;BME280;20229;49.856;19.030;2023-12-22T06:06:21;98871.89;;;3.98;77.41
33949;BME280;20229;49.856;19.030;2023-12-22T06:11:36;98871.48;;;3.90;77.30
33949;BME280;20229;49.856;19.030;2023-12-22T06:16:50;98866.71;;;3.79;77.15
33949;BME280;20229;49.856;19.030;2023-12-22T06:22:04;98859.23;;;3.68;77.91
33949;BME280;20229;49.856;19.030;2023-12-22T06:27:19;98885.87;;;3.58;78.22
33949;BME280;20229;49.856;19.030;2023-12-22T06:32:32;98869.85;;;3.55;79.77
33949;BME280;20229;49.856;19.030;2023-12-22T06:37:46;98871.09;;;3.50;82.41
33949;BME280;20229;49.856;19.030;2023-12-22T06:42:59;98882.98;;;3.46;83.63
33949;BME280;20229;49.856;19.030;2023-12-22T06:48:13;98893.08;;;3.42;84.92
33949;BME280;20229;49.856;19.030;2023-12-22T06:53:27;98904.84;;;3.41;85.21
33949;BME280;20229;49.856;19.030;2023-12-22T06:58:41;98906.66;;;3.41;85.68
33949;BME280;20229;49.856;19.030;2023-12-22T07:03:55;98898.84;;;3.36;86.28
33949;BME280;20229;49.856;19.030;2023-12-22T07:15:03;98903.53;;;3.32;86.83
33949;BME280;20229;49.856;19.030;2023-12-22T07:20:17;98899.97;;;3.48;87.56
33949;BME280;20229;49.856;19.030;2023-12-22T07:25:36;98912.84;;;3.58;87.43
33949;BME280;20229;49.856;19.030;2023-12-22T07:30:49;98912.34;;;3.68;87.84
33949;BME280;20229;49.856;19.030;2023-12-22T07:36:04;98913.63;;;3.76;87.56
33949;BME280;20229;49.856;19.030;2023-12-22T07:41:17;98921.52;;;3.95;86.23
33949;BME280;20229;49.856;19.030;2023-12-22T07:46:31;98930.77;;;4.07;85.41
33949;BME280;20229;49.856;19.030;2023-12-22T07:51:45;98927.66;;;4.13;85.14
33949;BME280;20229;49.856;19.030;2023-12-22T07:56:58;98925.18;;;4.10;84.76
33949;BME280;20229;49.856;19.030;2023-12-22T08:02:13;98937.37;;;4.17;84.52
33949;BME280;20229;49.856;19.030;2023-12-22T08:07:27;98915.20;;;4.26;83.91
33949;BME280;20229;49.856;19.030;2023-12-22T08:12:41;98941.67;;;4.36;83.23
33949;BME280;20229;49.856;19.030;2023-12-22T08:17:57;98929.72;;;4.40;83.03
33949;BME280;20229;49.856;19.030;2023-12-22T08:23:10;98931.09;;;4.47;82.84
33949;BME280;20229;49.856;19.030;2023-12-22T08:28:25;98942.48;;;4.52;82.85
33949;BME280;20229;49.856;19.030;2023-12-22T08:33:39;98931.67;;;4.52;81.67
33949;BME280;20229;49.856;19.030;2023-12-22T08:38:57;98948.09;;;4.49;81.37
33949;BME280;20229;49.856;19.030;2023-12-22T08:44:11;98955.92;;;4.53;79.61
33949;BME280;20229;49.856;19.030;2023-12-22T08:49:27;98967.70;;;4.52;79.51
33949;BME280;20229;49.856;19.030;2023-12-22T08:54:41;98966.21;;;4.47;79.37
33949;BME280;20229;49.856;19.030;2023-12-22T08:59:54;98986.60;;;4.52;80.44
33949;BME280;20229;49.856;19.030;2023-12-22T09:05:09;98969.89;;;4.46;81.04
33949;BME280;20229;49.856;19.030;2023-12-22T09:10:24;98973.73;;;4.42;81.78
33949;BME280;20229;49.856;19.030;2023-12-22T09:15:38;98963.10;;;4.39;82.99
33949;BME280;20229;49.856;19.030;2023-12-22T09:20:52;98946.90;;;4.39;83.17
33949;BME280;20229;49.856;19.030;2023-12-22T09:26:06;98949.32;;;4.43;83.84
33949;BME280;20229;49.856;19.030;2023-12-22T09:31:19;98941.03;;;4.46;84.39
33949;BME280;20229;49.856;19.030;2023-12-22T09:36:33;98928.03;;;4.53;84.72
33949;BME280;20229;49.856;19.030;2023-12-22T09:41:50;98905.34;;;4.55;84.00
33949;BME280;20229;49.856;19.030;2023-12-22T09:47:04;98913.01;;;4.63;83.02
33949;BME280;20229;49.856;19.030;2023-12-22T09:52:19;98919.09;;;4.67;81.63
33949;BME280;20229;49.856;19.030;2023-12-22T09:57:35;98921.13;;;4.77;81.79
33949;BME280;20229;49.856;19.030;2023-12-22T10:02:49;98913.97;;;4.76;82.04
33949;BME280;20229;49.856;19.030;2023-12-22T10:10:18;98917.45;;;4.78;82.35
33949;BME280;20229;49.856;19.030;2023-12-22T10:15:43;98913.41;;;4.86;82.02
33949;BME280;20229;49.856;19.030;2023-12-22T10:21:00;98921.72;;;4.83;81.75
33949;BME280;20229;49.856;19.030;2023-12-22T10:26:14;98893.71;;;4.84;81.60
33949;BME280;20229;49.856;19.030;2023-12-22T10:36:56;98891.42;;;5.20;80.03
33949;BME280;20229;49.856;19.030;2023-12-22T10:42:12;98895.06;;;5.19;79.82
33949;BME280;20229;49.856;19.030;2023-12-22T10:47:30;98868.43;;;5.13;79.35
33949;BME280;20229;49.856;19.030;2023-12-22T10:52:49;98871.33;;;5.10;79.73
33949;BME280;20229;49.856;19.030;2023-12-22T10:58:05;98879.26;;;4.99;79.80
33949;BME280;20229;49.856;19.030;2023-12-22T11:03:22;98903.16;;;4.91;79.76
33949;BME280;20229;49.856;19.030;2023-12-22T11:08:40;98900.95;;;4.83;80.50
33949;BME280;20229;49.856;19.030;2023-12-22T11:13:57;98889.46;;;4.79;81.47
33949;BME280;20229;49.856;19.030;2023-12-22T11:19:13;98892.16;;;4.79;82.70
33949;BME280;20229;49.856;19.030;2023-12-22T11:24:28;98896.89;;;4.76;82.47
33949;BME280;20229;49.856;19.030;2023-12-22T11:29:46;98876.60;;;4.69;81.70
33949;BME280;20229;49.856;19.030;2023-12-22T11:35:05;98884.53;;;4.72;81.96
33949;BME280;20229;49.856;19.030;2023-12-22T11:40:22;98871.02;;;4.86;82.18
33949;BME280;20229;49.856;19.030;2023-12-22T11:45:36;98866.41;;;5.02;81.93
33949;BME280;20229;49.856;19.030;2023-12-22T11:50:51;98857.61;;;5.13;80.12
33949;BME280;20229;49.856;19.030;2023-12-22T11:56:06;98876.60;;;5.26;79.63
33949;BME280;20229;49.856;19.030;2023-12-22T12:01:24;98893.15;;;5.21;77.56
33949;BME280;20229;49.856;19.030;2023-12-22T12:06:38;98879.06;;;5.16;77.24
33949;BME280;20229;49.856;19.030;2023-12-22T12:17:53;98864.16;;;5.38;77.62
33949;BME280;20229;49.856;19.030;2023-12-22T12:23:12;98857.77;;;5.39;76.38
33949;BME280;20229;49.856;19.030;2023-12-22T12:28:30;98850.15;;;5.31;76.75
33949;BME280;20229;49.856;19.030;2023-12-22T12:33:46;98850.90;;;5.33;76.81
33949;BME280;20229;49.856;19.030;2023-12-22T12:39:08;98837.48;;;5.32;75.84
33949;BME280;20229;49.856;19.030;2023-12-22T12:44:29;98844.07;;;5.27;76.21
33949;BME280;20229;49.856;19.030;2023-12-22T12:49:47;98827.05;;;5.25;76.16
33949;BME280;20229;49.856;19.030;2023-12-22T12:55:06;98809.57;;;5.31;75.75
33949;BME280;20229;49.856;19.030;2023-12-22T13:00:26;98849.77;;;5.37;72.90
33949;BME280;20229;49.856;19.030;2023-12-22T13:05:41;98869.15;;;5.44;72.68
33949;BME280;20229;49.856;19.030;2023-12-22T13:11:00;98866.45;;;5.44;69.49
33949;BME280;20229;49.856;19.030;2023-12-22T13:16:21;98877.88;;;5.35;68.48
33949;BME280;20229;49.856;19.030;2023-12-22T13:21:40;98879.81;;;5.18;69.12
33949;BME280;20229;49.856;19.030;2023-12-22T13:27:02;98879.06;;;5.02;69.96
33949;BME280;20229;49.856;19.030;2023-12-22T13:32:20;98907.34;;;4.96;69.07
33949;BME280;20229;49.856;19.030;2023-12-22T13:37:41;98906.55;;;4.94;68.68
33949;BME280;20229;49.856;19.030;2023-12-22T13:42:56;98909.55;;;4.90;69.67
33949;BME280;20229;49.856;19.030;2023-12-22T13:48:11;98922.09;;;4.91;67.93
33949;BME280;20229;49.856;19.030;2023-12-22T13:53:27;98935.04;;;4.86;68.62
33949;BME280;20229;49.856;19.030;2023-12-22T13:58:45;98932.13;;;4.74;68.63
33949;BME280;20229;49.856;19.030;2023-12-22T14:03:59;98947.16;;;4.64;68.12
33949;BME280;20229;49.856;19.030;2023-12-22T14:09:15;98926.95;;;4.55;66.31
33949;BME280;20229;49.856;19.030;2023-12-22T14:14:37;98927.24;;;4.51;66.03
33949;BME280;20229;49.856;19.030;2023-12-22T14:19:51;98934.16;;;4.41;66.71
33949;BME280;20229;49.856;19.030;2023-12-22T14:25:07;98929.31;;;4.31;64.36
33949;BME280;20229;49.856;19.030;2023-12-22T14:30:24;98927.95;;;4.24;66.14
33949;BME280;20229;49.856;19.030;2023-12-22T14:35:38;98949.73;;;4.21;67.58
33949;BME280;20229;49.856;19.030;2023-12-22T14:40:53;98960.87;;;4.15;68.69
33949;BME280;20229;49.856;19.030;2023-12-22T14:46:07;98969.07;;;4.14;69.80
33949;BME280;20229;49.856;19.030;2023-12-22T14:51:21;98951.11;;;4.13;70.22
33949;BME280;20229;49.856;19.030;2023-12-22T14:56:38;98936.61;;;3.99;70.42
33949;BME280;20229;49.856;19.030;2023-12-22T15:01:54;98949.93;;;3.87;70.47
33949;BME280;20229;49.856;19.030;2023-12-22T15:07:08;98951.74;;;3.70;71.12
33949;BME280;20229;49.856;19.030;2023-12-22T15:12:22;98946.19;;;3.57;70.83
33949;BME280;20229;49.856;19.030;2023-12-22T15:17:36;98930.94;;;3.41;71.00
33949;BME280;20229;49.856;19.030;2023-12-22T15:22:50;98938.92;;;3.26;71.33
33949;BME280;20229;49.856;19.030;2023-12-22T15:28:05;98949.59;;;3.12;71.44
33949;BME280;20229;49.856;19.030;2023-12-22T15:33:22;98965.27;;;3.04;71.87
33949;BME280;20229;49.856;19.030;2023-12-22T15:38:35;98966.76;;;2.94;72.18
33949;BME280;20229;49.856;19.030;2023-12-22T15:43:49;98960.88;;;2.85;72.16
33949;BME280;20229;49.856;19.030;2023-12-22T15:49:03;98973.73;;;2.80;72.49
33949;BME280;20229;49.856;19.030;2023-12-22T15:54:19;98965.55;;;2.82;73.00
33949;BME280;20229;49.856;19.030;2023-12-22T15:59:34;98986.09;;;2.84;73.24
33949;BME280;20229;49.856;19.030;2023-12-22T16:04:48;98989.25;;;2.93;73.58
33949;BME280;20229;49.856;19.030;2023-12-22T16:10:03;98982.28;;;2.88;74.04
33949;BME280;20229;49.856;19.030;2023-12-22T16:15:17;98988.37;;;2.92;74.47
33949;BME280;20229;49.856;19.030;2023-12-22T16:20:31;98980.60;;;2.86;74.72
33949;BME280;20229;49.856;19.030;2023-12-22T16:25:45;98949.80;;;2.74;75.00
33949;BME280;20229;49.856;19.030;2023-12-22T16:31:02;98980.23;;;2.94;75.29
33949;BME280;20229;49.856;19.030;2023-12-22T16:36:17;98971.95;;;2.97;75.58
33949;BME280;20229;49.856;19.030;2023-12-22T16:41:35;99006.12;;;2.96;75.88
33949;BME280;20229;49.856;19.030;2023-12-22T16:46:51;99025.80;;;2.98;76.35
33949;BME280;20229;49.856;19.030;2023-12-22T16:52:05;99009.53;;;3.00;76.54
33949;BME280;20229;49.856;19.030;2023-12-22T16:57:19;99030.16;;;3.01;77.15
33949;BME280;20229;49.856;19.030;2023-12-22T17:02:34;99040.05;;;3.00;77.44
33949;BME280;20229;49.856;19.030;2023-12-22T17:07:49;99039.18;;;3.00;77.74
33949;BME280;20229;49.856;19.030;2023-12-22T17:13:04;99038.16;;;3.02;78.34
33949;BME280;20229;49.856;19.030;2023-12-22T17:18:18;99011.10;;;3.04;78.50
33949;BME280;20229;49.856;19.030;2023-12-22T17:23:32;98996.20;;;2.97;78.26
33949;BME280;20229;49.856;19.030;2023-12-22T17:28:45;98994.02;;;2.87;78.78
33949;BME280;20229;49.856;19.030;2023-12-22T17:34:04;98995.20;;;2.82;79.01
33949;BME280;20229;49.856;19.030;2023-12-22T17:39:19;99012.63;;;2.75;79.12
33949;BME280;20229;49.856;19.030;2023-12-22T17:44:35;99012.08;;;2.68;79.63
33949;BME280;20229;49.856;19.030;2023-12-22T17:49:49;99021.11;;;2.67;80.30
33949;BME280;20229;49.856;19.030;2023-12-22T17:55:04;99015.33;;;2.75;79.95
33949;BME280;20229;49.856;19.030;2023-12-22T18:00:20;99030.16;;;2.83;80.04
33949;BME280;20229;49.856;19.030;2023-12-22T18:05:34;99033.80;;;2.82;79.73
33949;BME280;20229;49.856;19.030;2023-12-22T18:10:49;99040.14;;;2.81;79.47
33949;BME280;20229;49.856;19.030;2023-12-22T18:16:04;98878.36;;;1.80;80.94
33949;BME280;20229;49.856;19.030;2023-12-22T18:21:18;99067.24;;;2.78;85.89
33949;BME280;20229;49.856;19.030;2023-12-22T18:26:32;99051.15;;;2.59;84.92
33949;BME280;20229;49.856;19.030;2023-12-22T18:31:46;99055.63;;;2.42;86.69
33949;BME280;20229;49.856;19.030;2023-12-22T18:37:01;99049.77;;;2.33;85.69
33949;BME280;20229;49.856;19.030;2023-12-22T18:42:15;99044.52;;;2.30;85.90
33949;BME280;20229;49.856;19.030;2023-12-22T18:47:29;99045.69;;;2.25;85.46
33949;BME280;20229;49.856;19.030;2023-12-22T18:52:44;99040.73;;;2.34;84.70
33949;BME280;20229;49.856;19.030;2023-12-22T18:58:00;99022.36;;;2.43;84.74
33949;BME280;20229;49.856;19.030;2023-12-22T19:03:14;99030.91;;;2.51;83.46
33949;BME280;20229;49.856;19.030;2023-12-22T19:08:28;99021.91;;;2.52;82.80
33949;BME280;20229;49.856;19.030;2023-12-22T19:13:42;99023.49;;;2.56;83.08
33949;BME280;20229;49.856;19.030;2023-12-22T19:18:58;99019.84;;;2.57;82.85
33949;BME280;20229;49.856;19.030;2023-12-22T19:24:12;99015.11;;;2.62;82.81
33949;BME280;20229;49.856;19.030;2023-12-22T19:29:26;99027.47;;;2.66;82.42
33949;BME280;20229;49.856;19.030;2023-12-22T19:34:40;99028.09;;;2.71;82.47
33949;BME280;20229;49.856;19.030;2023-12-22T19:39:55;99031.66;;;2.72;82.19
33949;BME280;20229;49.856;19.030;2023-12-22T19:45:10;99037.85;;;2.74;82.39
33949;BME280;20229;49.856;19.030;2023-12-22T19:50:25;99042.42;;;2.72;82.27
33949;BME280;20229;49.856;19.030;2023-12-22T19:55:42;99037.13;;;2.70;82.27
33949;BME280;20229;49.856;19.030;2023-12-22T20:00:56;99039.20;;;2.65;82.64
33949;BME280;20229;49.856;19.030;2023-12-22T20:06:10;99040.22;;;2.62;82.53
33949;BME280;20229;49.856;19.030;2023-12-22T20:11:25;99037.98;;;2.53;82.31
33949;BME280;20229;49.856;19.030;2023-12-22T20:16:41;99064.19;;;2.50;82.69
33949;BME280;20229;49.856;19.030;2023-12-22T20:21:55;99042.02;;;2.45;83.08
33949;BME280;20229;49.856;19.030;2023-12-22T20:27:09;99030.38;;;2.44;82.64
33949;BME280;20229;49.856;19.030;2023-12-22T20:32:25;99028.62;;;2.43;82.80
33949;BME280;20229;49.856;19.030;2023-12-22T20:37:40;99027.89;;;2.39;82.99
33949;BME280;20229;49.856;19.030;2023-12-22T20:42:55;99031.39;;;2.42;83.53
33949;BME280;20229;49.856;19.030;2023-12-22T20:48:12;99037.51;;;2.45;83.31
33949;BME280;20229;49.856;19.030;2023-12-22T20:53:26;99047.26;;;2.48;83.41
33949;BME280;20229;49.856;19.030;2023-12-22T20:58:40;99054.43;;;2.47;83.83
33949;BME280;20229;49.856;19.030;2023-12-22T21:03:54;99058.33;;;2.42;83.85
33949;BME280;20229;49.856;19.030;2023-12-22T21:09:08;99056.49;;;2.42;84.18
33949;BME280;20229;49.856;19.030;2023-12-22T21:14:24;99063.00;;;2.38;84.16
33949;BME280;20229;49.856;19.030;2023-12-22T21:19:38;99061.98;;;2.41;84.39
33949;BME280;20229;49.856;19.030;2023-12-22T21:24:52;99064.67;;;2.41;84.25
33949;BME280;20229;49.856;19.030;2023-12-22T21:30:06;99054.67;;;2.43;84.65
33949;BME280;20229;49.856;19.030;2023-12-22T21:35:20;99044.77;;;2.43;84.63
33949;BME280;20229;49.856;19.030;2023-12-22T21:40:34;99048.34;;;2.44;84.56
33949;BME280;20229;49.856;19.030;2023-12-22T21:45:49;99052.78;;;2.45;84.51
33949;BME280;20229;49.856;19.030;2023-12-22T21:51:04;99057.31;;;2.44;84.45
33949;BME280;20229;49.856;19.030;2023-12-22T21:56:21;99053.90;;;2.41;84.82
33949;BME280;20229;49.856;19.030;2023-12-22T22:01:44;99046.17;;;2.33;84.70
33949;BME280;20229;49.856;19.030;2023-12-22T22:06:59;99035.78;;;2.25;84.65
33949;BME280;20229;49.856;19.030;2023-12-22T22:12:13;99020.83;;;2.20;84.85
33949;BME280;20229;49.856;19.030;2023-12-22T22:17:27;99040.92;;;2.12;85.09
33949;BME280;20229;49.856;19.030;2023-12-22T22:22:41;99036.70;;;2.07;85.49
33949;BME280;20229;49.856;19.030;2023-12-22T22:27:55;99034.09;;;2.05;85.67
33949;BME280;20229;49.856;19.030;2023-12-22T22:33:09;99042.07;;;2.07;85.92
33949;BME280;20229;49.856;19.030;2023-12-22T22:38:23;99029.43;;;2.09;86.35
33949;BME280;20229;49.856;19.030;2023-12-22T22:43:37;99036.41;;;2.13;86.58
33949;BME280;20229;49.856;19.030;2023-12-22T22:48:54;99036.27;;;2.16;86.82
33949;BME280;20229;49.856;19.030;2023-12-22T22:54:08;99045.11;;;2.18;87.14
33949;BME280;20229;49.856;19.030;2023-12-22T22:59:22;99043.23;;;2.20;86.97
33949;BME280;20229;49.856;19.030;2023-12-22T23:04:39;99041.17;;;2.25;87.33
33949;BME280;20229;49.856;19.030;2023-12-22T23:09:53;99051.80;;;2.28;86.61
33949;BME280;20229;49.856;19.030;2023-12-22T23:15:11;99049.91;;;2.30;85.63
33949;BME280;20229;49.856;19.030;2023-12-22T23:20:25;99065.92;;;2.33;85.54
33949;BME280;20229;49.856;19.030;2023-12-22T23:25:39;99067.37;;;2.41;85.47
33949;BME280;20229;49.856;19.030;2023-12-22T23:30:53;99088.73;;;2.44;85.46
33949;BME280;20229;49.856;19.030;2023-12-22T23:36:07;99070.83;;;2.43;85.43
33949;BME280;20229;49.856;19.030;2023-12-22T23:41:23;99073.52;;;2.43;85.20
33949;BME280;20229;49.856;19.030;2023-12-22T23:46:37;99084.95;;;2.48;85.36
33949;BME280;20229;49.856;19.030;2023-12-22T23:51:52;99083.91;;;2.50;85.60
33949;BME280;20229;49.856;19.030;2023-12-22T23:57:06;99092.86;;;2.51;85.28
